sensor_id;sensor_type;location;lat;lon;timestamp;P1;durP1;ratioP1;P2;durP2;ratioP2
6185;SDS011;3126;52.738;8.316;2023-07-28T00:00:57;17.13;;;9.68;;
6185;SDS011;3126;52.738;8.316;2023-07-28T00:05:58;15.90;;;9.43;;
6185;SDS011;3126;52.738;8.316;2023-07-28T00:10:59;18.27;;;10.25;;
6185;SDS011;3126;52.738;8.316;2023-07-28T00:15:59;19.48;;;10.50;;
6185;SDS011;3126;52.738;8.316;2023-07-28T00:21:00;17.70;;;9.85;;
6185;SDS011;3126;52.738;8.316;2023-07-28T00:26:01;16.60;;;9.55;;
6185;SDS011;3126;52.738;8.316;2023-07-28T00:31:02;18.35;;;10.20;;
6185;SDS011;3126;52.738;8.316;2023-07-28T00:36:03;16.48;;;8.82;;
6185;SDS011;3126;52.738;8.316;2023-07-28T00:41:04;14.45;;;9.23;;
6185;SDS011;3126;52.738;8.316;2023-07-28T00:46:05;16.83;;;9.30;;
6185;SDS011;3126;52.738;8.316;2023-07-28T00:51:07;17.10;;;9.80;;
6185;SDS011;3126;52.738;8.316;2023-07-28T00:56:08;16.40;;;9.68;;
6185;SDS011;3126;52.738;8.316;2023-07-28T01:01:10;17.85;;;10.43;;
6185;SDS011;3126;52.738;8.316;2023-07-28T01:06:22;16.17;;;9.75;;
6185;SDS011;3126;52.738;8.316;2023-07-28T01:11:25;21.30;;;11.02;;
6185;SDS011;3126;52.738;8.316;2023-07-28T01:16:27;19.20;;;11.07;;
6185;SDS011;3126;52.738;8.316;2023-07-28T01:21:28;18.90;;;10.38;;
6185;SDS011;3126;52.738;8.316;2023-07-28T01:26:32;20.40;;;11.27;;
6185;SDS011;3126;52.738;8.316;2023-07-28T01:31:34;23.80;;;12.30;;
6185;SDS011;3126;52.738;8.316;2023-07-28T01:36:34;22.27;;;12.82;;
6185;SDS011;3126;52.738;8.316;2023-07-28T01:41:37;25.25;;;13.90;;
6185;SDS011;3126;52.738;8.316;2023-07-28T01:46:39;27.08;;;14.75;;
6185;SDS011;3126;52.738;8.316;2023-07-28T01:51:40;24.83;;;13.82;;
6185;SDS011;3126;52.738;8.316;2023-07-28T01:56:41;29.20;;;15.32;;
6185;SDS011;3126;52.738;8.316;2023-07-28T02:01:44;26.73;;;14.98;;
6185;SDS011;3126;52.738;8.316;2023-07-28T02:06:45;30.35;;;15.45;;
6185;SDS011;3126;52.738;8.316;2023-07-28T02:11:45;31.00;;;14.32;;
6185;SDS011;3126;52.738;8.316;2023-07-28T02:16:46;28.30;;;15.35;;
6185;SDS011;3126;52.738;8.316;2023-07-28T02:21:47;31.02;;;16.25;;
6185;SDS011;3126;52.738;8.316;2023-07-28T02:26:49;28.55;;;15.93;;
6185;SDS011;3126;52.738;8.316;2023-07-28T02:31:50;26.65;;;15.70;;
6185;SDS011;3126;52.738;8.316;2023-07-28T02:36:51;29.98;;;15.27;;
6185;SDS011;3126;52.738;8.316;2023-07-28T02:41:52;26.77;;;14.90;;
6185;SDS011;3126;52.738;8.316;2023-07-28T02:46:53;27.75;;;14.25;;
6185;SDS011;3126;52.738;8.316;2023-07-28T02:51:54;30.52;;;15.98;;
6185;SDS011;3126;52.738;8.316;2023-07-28T02:56:55;28.13;;;15.30;;
6185;SDS011;3126;52.738;8.316;2023-07-28T03:01:55;32.83;;;14.80;;
6185;SDS011;3126;52.738;8.316;2023-07-28T03:06:57;27.52;;;15.45;;
6185;SDS011;3126;52.738;8.316;2023-07-28T03:11:58;27.73;;;14.60;;
6185;SDS011;3126;52.738;8.316;2023-07-28T03:16:59;30.95;;;14.40;;
6185;SDS011;3126;52.738;8.316;2023-07-28T03:22:00;32.60;;;15.38;;
6185;SDS011;3126;52.738;8.316;2023-07-28T03:27:03;28.95;;;15.40;;
6185;SDS011;3126;52.738;8.316;2023-07-28T03:32:04;30.83;;;15.55;;
6185;SDS011;3126;52.738;8.316;2023-07-28T03:37:05;36.65;;;17.58;;
6185;SDS011;3126;52.738;8.316;2023-07-28T03:42:06;29.77;;;15.77;;
6185;SDS011;3126;52.738;8.316;2023-07-28T03:47:07;33.85;;;16.52;;
6185;SDS011;3126;52.738;8.316;2023-07-28T03:52:08;34.55;;;15.90;;
6185;SDS011;3126;52.738;8.316;2023-07-28T03:57:09;34.80;;;16.52;;
6185;SDS011;3126;52.738;8.316;2023-07-28T04:02:10;34.03;;;16.05;;
6185;SDS011;3126;52.738;8.316;2023-07-28T04:07:11;34.38;;;16.63;;
6185;SDS011;3126;52.738;8.316;2023-07-28T04:12:12;28.70;;;15.50;;
6185;SDS011;3126;52.738;8.316;2023-07-28T04:17:13;29.13;;;16.02;;
6185;SDS011;3126;52.738;8.316;2023-07-28T04:22:14;31.00;;;15.65;;
6185;SDS011;3126;52.738;8.316;2023-07-28T04:27:21;30.98;;;16.52;;
6185;SDS011;3126;52.738;8.316;2023-07-28T04:32:22;29.80;;;16.42;;
6185;SDS011;3126;52.738;8.316;2023-07-28T04:37:23;31.48;;;16.25;;
6185;SDS011;3126;52.738;8.316;2023-07-28T04:42:24;26.98;;;15.85;;
6185;SDS011;3126;52.738;8.316;2023-07-28T04:47:25;25.30;;;15.48;;
6185;SDS011;3126;52.738;8.316;2023-07-28T04:52:26;32.40;;;15.52;;
6185;SDS011;3126;52.738;8.316;2023-07-28T04:57:27;25.83;;;15.32;;
6185;SDS011;3126;52.738;8.316;2023-07-28T05:02:29;29.77;;;16.70;;
6185;SDS011;3126;52.738;8.316;2023-07-28T05:07:31;24.80;;;15.88;;
6185;SDS011;3126;52.738;8.316;2023-07-28T05:12:32;28.60;;;15.60;;
6185;SDS011;3126;52.738;8.316;2023-07-28T05:17:33;29.52;;;16.20;;
6185;SDS011;3126;52.738;8.316;2023-07-28T05:22:34;23.65;;;15.00;;
6185;SDS011;3126;52.738;8.316;2023-07-28T05:27:35;25.52;;;15.75;;
6185;SDS011;3126;52.738;8.316;2023-07-28T05:32:36;27.60;;;15.95;;
6185;SDS011;3126;52.738;8.316;2023-07-28T05:37:38;22.35;;;14.90;;
6185;SDS011;3126;52.738;8.316;2023-07-28T05:42:39;37.20;;;15.20;;
6185;SDS011;3126;52.738;8.316;2023-07-28T05:47:41;21.77;;;13.82;;
6185;SDS011;3126;52.738;8.316;2023-07-28T05:52:42;21.50;;;14.35;;
6185;SDS011;3126;52.738;8.316;2023-07-28T05:57:42;23.67;;;13.65;;
6185;SDS011;3126;52.738;8.316;2023-07-28T06:02:43;24.55;;;13.45;;
6185;SDS011;3126;52.738;8.316;2023-07-28T06:07:44;24.00;;;13.38;;
6185;SDS011;3126;52.738;8.316;2023-07-28T06:12:45;25.10;;;13.52;;
6185;SDS011;3126;52.738;8.316;2023-07-28T06:17:46;25.67;;;13.50;;
6185;SDS011;3126;52.738;8.316;2023-07-28T06:22:46;26.23;;;13.65;;
6185;SDS011;3126;52.738;8.316;2023-07-28T06:27:47;24.08;;;14.23;;
6185;SDS011;3126;52.738;8.316;2023-07-28T06:32:47;23.77;;;14.05;;
6185;SDS011;3126;52.738;8.316;2023-07-28T06:37:48;24.50;;;14.50;;
6185;SDS011;3126;52.738;8.316;2023-07-28T06:42:49;26.73;;;15.98;;
6185;SDS011;3126;52.738;8.316;2023-07-28T06:47:50;23.58;;;13.63;;
6185;SDS011;3126;52.738;8.316;2023-07-28T06:52:51;24.88;;;14.27;;
6185;SDS011;3126;52.738;8.316;2023-07-28T06:57:52;21.83;;;13.50;;
6185;SDS011;3126;52.738;8.316;2023-07-28T07:02:53;22.65;;;12.85;;
6185;SDS011;3126;52.738;8.316;2023-07-28T07:07:54;24.45;;;14.85;;
6185;SDS011;3126;52.738;8.316;2023-07-28T07:12:56;20.40;;;13.27;;
6185;SDS011;3126;52.738;8.316;2023-07-28T07:17:57;21.17;;;13.23;;
6185;SDS011;3126;52.738;8.316;2023-07-28T07:22:58;24.40;;;13.98;;
6185;SDS011;3126;52.738;8.316;2023-07-28T07:27:59;23.48;;;14.25;;
6185;SDS011;3126;52.738;8.316;2023-07-28T07:33:00;23.25;;;14.70;;
6185;SDS011;3126;52.738;8.316;2023-07-28T07:38:01;19.38;;;13.48;;
6185;SDS011;3126;52.738;8.316;2023-07-28T07:43:02;23.95;;;15.10;;
6185;SDS011;3126;52.738;8.316;2023-07-28T07:48:03;24.02;;;14.63;;
6185;SDS011;3126;52.738;8.316;2023-07-28T07:53:04;20.48;;;13.73;;
6185;SDS011;3126;52.738;8.316;2023-07-28T07:58:05;21.02;;;13.18;;
6185;SDS011;3126;52.738;8.316;2023-07-28T08:03:07;19.90;;;13.80;;
6185;SDS011;3126;52.738;8.316;2023-07-28T08:08:08;19.65;;;13.05;;
6185;SDS011;3126;52.738;8.316;2023-07-28T08:13:09;21.58;;;14.52;;
6185;SDS011;3126;52.738;8.316;2023-07-28T08:18:11;17.17;;;12.45;;
6185;SDS011;3126;52.738;8.316;2023-07-28T08:23:12;14.50;;;11.32;;
6185;SDS011;3126;52.738;8.316;2023-07-28T08:28:13;16.83;;;10.88;;
6185;SDS011;3126;52.738;8.316;2023-07-28T08:33:14;14.93;;;11.10;;
6185;SDS011;3126;52.738;8.316;2023-07-28T08:38:15;15.15;;;10.80;;
6185;SDS011;3126;52.738;8.316;2023-07-28T08:43:16;11.10;;;9.65;;
6185;SDS011;3126;52.738;8.316;2023-07-28T08:48:17;14.05;;;9.32;;
6185;SDS011;3126;52.738;8.316;2023-07-28T08:53:18;11.02;;;8.35;;
6185;SDS011;3126;52.738;8.316;2023-07-28T08:58:20;12.27;;;8.98;;
6185;SDS011;3126;52.738;8.316;2023-07-28T09:03:22;10.35;;;8.77;;
6185;SDS011;3126;52.738;8.316;2023-07-28T09:08:27;12.25;;;9.35;;
6185;SDS011;3126;52.738;8.316;2023-07-28T09:13:30;9.43;;;8.27;;
6185;SDS011;3126;52.738;8.316;2023-07-28T09:18:35;8.68;;;7.03;;
6185;SDS011;3126;52.738;8.316;2023-07-28T09:23:36;8.25;;;7.35;;
6185;SDS011;3126;52.738;8.316;2023-07-28T09:28:38;7.82;;;6.65;;
6185;SDS011;3126;52.738;8.316;2023-07-28T09:33:40;10.20;;;6.63;;
6185;SDS011;3126;52.738;8.316;2023-07-28T09:38:46;9.77;;;7.95;;
6185;SDS011;3126;52.738;8.316;2023-07-28T09:43:47;8.63;;;6.45;;
6185;SDS011;3126;52.738;8.316;2023-07-28T09:48:52;9.40;;;8.50;;
6185;SDS011;3126;52.738;8.316;2023-07-28T09:53:58;9.40;;;7.53;;
6185;SDS011;3126;52.738;8.316;2023-07-28T09:59:01;9.50;;;7.93;;
6185;SDS011;3126;52.738;8.316;2023-07-28T10:09:04;9.73;;;7.63;;
6185;SDS011;3126;52.738;8.316;2023-07-28T10:14:07;9.10;;;8.18;;
6185;SDS011;3126;52.738;8.316;2023-07-28T10:19:10;10.18;;;8.48;;
6185;SDS011;3126;52.738;8.316;2023-07-28T10:24:12;9.13;;;7.40;;
6185;SDS011;3126;52.738;8.316;2023-07-28T10:29:14;8.88;;;6.10;;
6185;SDS011;3126;52.738;8.316;2023-07-28T10:34:17;7.25;;;5.55;;
6185;SDS011;3126;52.738;8.316;2023-07-28T10:39:18;5.07;;;4.68;;
6185;SDS011;3126;52.738;8.316;2023-07-28T10:44:19;6.68;;;5.28;;
6185;SDS011;3126;52.738;8.316;2023-07-28T10:49:20;6.78;;;5.32;;
6185;SDS011;3126;52.738;8.316;2023-07-28T10:54:21;8.07;;;5.28;;
6185;SDS011;3126;52.738;8.316;2023-07-28T10:59:22;6.28;;;5.53;;
6185;SDS011;3126;52.738;8.316;2023-07-28T11:04:23;7.10;;;5.35;;
6185;SDS011;3126;52.738;8.316;2023-07-28T11:09:24;7.60;;;5.93;;
6185;SDS011;3126;52.738;8.316;2023-07-28T11:14:25;4.53;;;4.13;;
6185;SDS011;3126;52.738;8.316;2023-07-28T11:19:26;4.20;;;3.80;;
6185;SDS011;3126;52.738;8.316;2023-07-28T11:24:27;6.45;;;3.97;;
6185;SDS011;3126;52.738;8.316;2023-07-28T11:29:28;4.80;;;3.90;;
6185;SDS011;3126;52.738;8.316;2023-07-28T11:34:33;4.97;;;4.00;;
6185;SDS011;3126;52.738;8.316;2023-07-28T11:39:35;3.97;;;3.47;;
6185;SDS011;3126;52.738;8.316;2023-07-28T11:44:36;4.85;;;4.15;;
6185;SDS011;3126;52.738;8.316;2023-07-28T11:49:45;6.55;;;3.60;;
6185;SDS011;3126;52.738;8.316;2023-07-28T11:54:46;3.78;;;3.28;;
6185;SDS011;3126;52.738;8.316;2023-07-28T11:59:47;5.70;;;3.72;;
6185;SDS011;3126;52.738;8.316;2023-07-28T12:04:48;5.35;;;4.22;;
6185;SDS011;3126;52.738;8.316;2023-07-28T12:14:52;5.75;;;4.95;;
6185;SDS011;3126;52.738;8.316;2023-07-28T12:20:03;8.15;;;5.10;;
6185;SDS011;3126;52.738;8.316;2023-07-28T12:25:15;6.70;;;5.72;;
6185;SDS011;3126;52.738;8.316;2023-07-28T12:30:16;4.90;;;4.50;;
6185;SDS011;3126;52.738;8.316;2023-07-28T12:35:17;6.53;;;5.07;;
6185;SDS011;3126;52.738;8.316;2023-07-28T12:40:19;6.65;;;5.60;;
6185;SDS011;3126;52.738;8.316;2023-07-28T12:45:23;5.22;;;4.65;;
6185;SDS011;3126;52.738;8.316;2023-07-28T12:50:29;4.43;;;4.03;;
6185;SDS011;3126;52.738;8.316;2023-07-28T12:55:30;5.07;;;4.25;;
6185;SDS011;3126;52.738;8.316;2023-07-28T13:00:32;4.47;;;4.07;;
6185;SDS011;3126;52.738;8.316;2023-07-28T13:05:34;4.70;;;4.10;;
6185;SDS011;3126;52.738;8.316;2023-07-28T13:10:38;4.22;;;3.90;;
6185;SDS011;3126;52.738;8.316;2023-07-28T13:15:44;5.80;;;4.13;;
6185;SDS011;3126;52.738;8.316;2023-07-28T13:20:48;5.00;;;4.60;;
6185;SDS011;3126;52.738;8.316;2023-07-28T13:25:50;5.07;;;4.68;;
6185;SDS011;3126;52.738;8.316;2023-07-28T13:30:51;7.00;;;6.30;;
6185;SDS011;3126;52.738;8.316;2023-07-28T13:35:52;5.18;;;4.53;;
6185;SDS011;3126;52.738;8.316;2023-07-28T13:40:54;7.00;;;5.32;;
6185;SDS011;3126;52.738;8.316;2023-07-28T13:45:56;7.00;;;6.32;;
6185;SDS011;3126;52.738;8.316;2023-07-28T13:50:58;8.73;;;6.88;;
6185;SDS011;3126;52.738;8.316;2023-07-28T13:55:59;8.27;;;7.13;;
6185;SDS011;3126;52.738;8.316;2023-07-28T14:01:00;8.73;;;6.35;;
6185;SDS011;3126;52.738;8.316;2023-07-28T14:06:00;5.55;;;4.88;;
6185;SDS011;3126;52.738;8.316;2023-07-28T14:11:01;4.75;;;4.35;;
6185;SDS011;3126;52.738;8.316;2023-07-28T14:16:02;5.22;;;4.70;;
6185;SDS011;3126;52.738;8.316;2023-07-28T14:21:04;4.95;;;4.35;;
6185;SDS011;3126;52.738;8.316;2023-07-28T14:26:06;5.55;;;4.65;;
6185;SDS011;3126;52.738;8.316;2023-07-28T14:31:07;7.10;;;4.75;;
6185;SDS011;3126;52.738;8.316;2023-07-28T14:36:11;6.18;;;5.32;;
6185;SDS011;3126;52.738;8.316;2023-07-28T14:41:13;5.75;;;5.32;;
6185;SDS011;3126;52.738;8.316;2023-07-28T14:46:14;7.63;;;5.78;;
6185;SDS011;3126;52.738;8.316;2023-07-28T14:51:15;8.30;;;6.10;;
6185;SDS011;3126;52.738;8.316;2023-07-28T14:56:16;8.32;;;7.32;;
6185;SDS011;3126;52.738;8.316;2023-07-28T15:01:18;8.52;;;7.05;;
6185;SDS011;3126;52.738;8.316;2023-07-28T15:06:20;10.30;;;8.15;;
6185;SDS011;3126;52.738;8.316;2023-07-28T15:11:21;9.55;;;8.52;;
6185;SDS011;3126;52.738;8.316;2023-07-28T15:16:22;10.57;;;8.82;;
6185;SDS011;3126;52.738;8.316;2023-07-28T15:21:23;10.30;;;8.35;;
6185;SDS011;3126;52.738;8.316;2023-07-28T15:26:24;8.93;;;8.02;;
6185;SDS011;3126;52.738;8.316;2023-07-28T15:31:25;9.73;;;7.93;;
6185;SDS011;3126;52.738;8.316;2023-07-28T15:36:25;10.20;;;8.82;;
6185;SDS011;3126;52.738;8.316;2023-07-28T15:53:20;9.38;;;7.78;;
6185;SDS011;3126;52.738;8.316;2023-07-28T15:58:22;9.48;;;8.15;;
6185;SDS011;3126;52.738;8.316;2023-07-28T16:03:24;8.15;;;6.80;;
6185;SDS011;3126;52.738;8.316;2023-07-28T16:08:24;6.82;;;6.13;;
6185;SDS011;3126;52.738;8.316;2023-07-28T16:13:25;7.25;;;5.35;;
6185;SDS011;3126;52.738;8.316;2023-07-28T16:18:28;5.80;;;5.30;;
6185;SDS011;3126;52.738;8.316;2023-07-28T16:23:30;9.55;;;5.57;;
6185;SDS011;3126;52.738;8.316;2023-07-28T16:28:32;5.13;;;4.72;;
6185;SDS011;3126;52.738;8.316;2023-07-28T16:33:46;4.93;;;4.50;;
6185;SDS011;3126;52.738;8.316;2023-07-28T16:38:47;6.25;;;4.93;;
6185;SDS011;3126;52.738;8.316;2023-07-28T16:43:51;5.35;;;4.95;;
6185;SDS011;3126;52.738;8.316;2023-07-28T16:48:52;5.13;;;4.60;;
6185;SDS011;3126;52.738;8.316;2023-07-28T16:53:56;4.80;;;4.30;;
6185;SDS011;3126;52.738;8.316;2023-07-28T16:59:09;4.10;;;3.72;;
6185;SDS011;3126;52.738;8.316;2023-07-28T17:04:10;4.60;;;4.20;;
6185;SDS011;3126;52.738;8.316;2023-07-28T17:09:13;5.30;;;4.18;;
6185;SDS011;3126;52.738;8.316;2023-07-28T17:14:19;6.03;;;4.20;;
6185;SDS011;3126;52.738;8.316;2023-07-28T17:19:19;5.53;;;4.25;;
6185;SDS011;3126;52.738;8.316;2023-07-28T17:24:24;4.60;;;4.15;;
6185;SDS011;3126;52.738;8.316;2023-07-28T17:29:27;4.35;;;3.95;;
6185;SDS011;3126;52.738;8.316;2023-07-28T17:34:31;4.32;;;3.92;;
6185;SDS011;3126;52.738;8.316;2023-07-28T17:39:33;4.72;;;4.32;;
6185;SDS011;3126;52.738;8.316;2023-07-28T17:44:37;4.55;;;4.15;;
6185;SDS011;3126;52.738;8.316;2023-07-28T17:49:42;5.50;;;4.57;;
6185;SDS011;3126;52.738;8.316;2023-07-28T17:54:44;5.85;;;4.85;;
6185;SDS011;3126;52.738;8.316;2023-07-28T17:59:45;5.50;;;5.00;;
6185;SDS011;3126;52.738;8.316;2023-07-28T18:04:47;7.95;;;5.43;;
6185;SDS011;3126;52.738;8.316;2023-07-28T18:09:47;6.00;;;5.15;;
6185;SDS011;3126;52.738;8.316;2023-07-28T18:14:49;6.88;;;5.78;;
6185;SDS011;3126;52.738;8.316;2023-07-28T18:19:49;6.15;;;5.55;;
6185;SDS011;3126;52.738;8.316;2023-07-28T18:24:50;7.75;;;5.78;;
6185;SDS011;3126;52.738;8.316;2023-07-28T18:29:51;6.10;;;5.50;;
6185;SDS011;3126;52.738;8.316;2023-07-28T18:34:52;6.75;;;5.82;;
6185;SDS011;3126;52.738;8.316;2023-07-28T18:39:52;7.00;;;5.78;;
6185;SDS011;3126;52.738;8.316;2023-07-28T18:44:55;7.07;;;6.13;;
6185;SDS011;3126;52.738;8.316;2023-07-28T18:49:57;6.60;;;6.00;;
6185;SDS011;3126;52.738;8.316;2023-07-28T18:54:58;6.88;;;5.90;;
6185;SDS011;3126;52.738;8.316;2023-07-28T19:00:00;6.88;;;6.18;;
6185;SDS011;3126;52.738;8.316;2023-07-28T19:05:04;8.63;;;6.82;;
6185;SDS011;3126;52.738;8.316;2023-07-28T19:10:05;8.25;;;6.75;;
6185;SDS011;3126;52.738;8.316;2023-07-28T19:15:06;8.63;;;6.90;;
6185;SDS011;3126;52.738;8.316;2023-07-28T19:20:07;8.57;;;6.05;;
6185;SDS011;3126;52.738;8.316;2023-07-28T19:25:09;7.63;;;6.43;;
6185;SDS011;3126;52.738;8.316;2023-07-28T19:30:10;7.88;;;6.57;;
6185;SDS011;3126;52.738;8.316;2023-07-28T19:35:12;9.35;;;6.70;;
6185;SDS011;3126;52.738;8.316;2023-07-28T19:40:13;8.45;;;6.95;;
6185;SDS011;3126;52.738;8.316;2023-07-28T19:45:15;9.13;;;7.30;;
6185;SDS011;3126;52.738;8.316;2023-07-28T19:50:16;8.15;;;6.95;;
6185;SDS011;3126;52.738;8.316;2023-07-28T19:55:18;7.70;;;6.88;;
6185;SDS011;3126;52.738;8.316;2023-07-28T20:00:19;8.85;;;7.47;;
6185;SDS011;3126;52.738;8.316;2023-07-28T20:05:20;8.20;;;7.35;;
6185;SDS011;3126;52.738;8.316;2023-07-28T20:10:21;10.13;;;7.38;;
6185;SDS011;3126;52.738;8.316;2023-07-28T20:15:26;9.98;;;7.43;;
6185;SDS011;3126;52.738;8.316;2023-07-28T20:20:27;9.23;;;7.47;;
6185;SDS011;3126;52.738;8.316;2023-07-28T20:25:28;9.00;;;7.70;;
6185;SDS011;3126;52.738;8.316;2023-07-28T20:30:29;9.10;;;7.70;;
6185;SDS011;3126;52.738;8.316;2023-07-28T20:35:30;9.40;;;7.55;;
6185;SDS011;3126;52.738;8.316;2023-07-28T20:40:32;10.63;;;9.40;;
6185;SDS011;3126;52.738;8.316;2023-07-28T20:45:33;12.15;;;8.73;;
6185;SDS011;3126;52.738;8.316;2023-07-28T20:50:34;9.77;;;8.65;;
6185;SDS011;3126;52.738;8.316;2023-07-28T20:55:35;13.25;;;9.68;;
6185;SDS011;3126;52.738;8.316;2023-07-28T21:00:36;14.13;;;10.00;;
6185;SDS011;3126;52.738;8.316;2023-07-28T21:05:38;12.23;;;9.52;;
6185;SDS011;3126;52.738;8.316;2023-07-28T21:10:38;13.65;;;9.88;;
6185;SDS011;3126;52.738;8.316;2023-07-28T21:15:40;19.70;;;14.85;;
6185;SDS011;3126;52.738;8.316;2023-07-28T21:20:40;20.38;;;14.52;;
6185;SDS011;3126;52.738;8.316;2023-07-28T21:25:41;15.93;;;10.98;;
6185;SDS011;3126;52.738;8.316;2023-07-28T21:30:42;14.48;;;10.60;;
6185;SDS011;3126;52.738;8.316;2023-07-28T21:35:45;14.15;;;10.68;;
6185;SDS011;3126;52.738;8.316;2023-07-28T21:40:47;13.85;;;10.10;;
6185;SDS011;3126;52.738;8.316;2023-07-28T21:45:48;13.75;;;9.73;;
6185;SDS011;3126;52.738;8.316;2023-07-28T21:50:49;16.13;;;10.57;;
6185;SDS011;3126;52.738;8.316;2023-07-28T21:55:50;15.35;;;13.00;;
6185;SDS011;3126;52.738;8.316;2023-07-28T22:00:51;19.83;;;13.07;;
6185;SDS011;3126;52.738;8.316;2023-07-28T22:05:52;18.60;;;13.55;;
6185;SDS011;3126;52.738;8.316;2023-07-28T22:10:53;19.48;;;13.13;;
6185;SDS011;3126;52.738;8.316;2023-07-28T22:15:54;17.15;;;12.80;;
6185;SDS011;3126;52.738;8.316;2023-07-28T22:20:55;18.48;;;13.50;;
6185;SDS011;3126;52.738;8.316;2023-07-28T22:25:57;17.60;;;13.60;;
6185;SDS011;3126;52.738;8.316;2023-07-28T22:31:01;18.85;;;13.48;;
6185;SDS011;3126;52.738;8.316;2023-07-28T22:36:02;19.50;;;14.20;;
6185;SDS011;3126;52.738;8.316;2023-07-28T22:41:02;19.40;;;14.35;;
6185;SDS011;3126;52.738;8.316;2023-07-28T22:46:03;17.85;;;13.63;;
6185;SDS011;3126;52.738;8.316;2023-07-28T22:51:03;18.20;;;13.55;;
6185;SDS011;3126;52.738;8.316;2023-07-28T22:56:05;21.35;;;14.10;;
6185;SDS011;3126;52.738;8.316;2023-07-28T23:01:06;21.25;;;15.15;;
6185;SDS011;3126;52.738;8.316;2023-07-28T23:06:08;18.35;;;13.93;;
6185;SDS011;3126;52.738;8.316;2023-07-28T23:11:10;21.85;;;14.75;;
6185;SDS011;3126;52.738;8.316;2023-07-28T23:16:11;18.75;;;14.52;;
6185;SDS011;3126;52.738;8.316;2023-07-28T23:21:12;19.13;;;14.50;;
6185;SDS011;3126;52.738;8.316;2023-07-28T23:26:12;21.83;;;15.57;;
6185;SDS011;3126;52.738;8.316;2023-07-28T23:31:14;19.98;;;15.02;;
6185;SDS011;3126;52.738;8.316;2023-07-28T23:36:15;20.00;;;15.70;;
6185;SDS011;3126;52.738;8.316;2023-07-28T23:41:18;23.08;;;14.65;;
6185;SDS011;3126;52.738;8.316;2023-07-28T23:46:19;21.85;;;15.68;;
6185;SDS011;3126;52.738;8.316;2023-07-28T23:51:21;20.33;;;15.13;;
